South Newfane, Vermont
Current Conditions -  °F | °C
As of 9:35 PM on Sunday 23 Nov 2014 (Local Time) from KEEN Reporting Station
Clear Clear  
Wind Chill: 36°   Ceiling: Unl
Heat Index: 36°   Visibility: 10mi
Dew Point: 30°   Wind: 3mph
Humidity: 81%   Direction: 210°SSW
Pressure: 30.1"   Gusts: NA
Location:  42.94°N, 72.71°W
Report Text: KEEN 240235Z AUTO 21003KT 10SM CLR 02/M01 A3010 RMK AO1
Loading
Personal Weather Stations






























Interactive Weather Map New forecast layout! Learn more

10-Day Weather Forecast

Advertisements
Track Severe Weather on mobile